Time;durP1;ratioP1;P1;durP2;ratioP2;P2;SDS_P1;SDS_P2;PMS_P1;PMS_P2;Temp;Humidity;BMP_temperature;BMP_pressure;BME280_temperature;BME280_humidity;BME280_pressure;Samples;Min_cycle;Max_cycle;Signal;HPM_P1;HPM_P2
2023/04/26 00:01:31;;;;;;;61.65;58.17;;;3.90;99.90;;;;;;5105925;28;20031;-65
2023/04/26 00:03:56;;;;;;;59.45;56.55;;;4.00;99.90;;;;;;5090708;28;20038;-65
2023/04/26 00:06:22;;;;;;;58.25;55.20;;;4.10;99.90;;;;;;5094197;28;20110;-65
2023/04/26 00:08:47;;;;;;;57.10;54.40;;;4.10;99.90;;;;;;5091798;28;20452;-65
2023/04/26 00:11:13;;;;;;;60.47;57.08;;;4.00;99.90;;;;;;5069392;28;20126;-65
2023/04/26 00:13:38;;;;;;;62.47;59.05;;;4.00;99.90;;;;;;5087040;28;20051;-66
2023/04/26 00:16:04;;;;;;;62.38;58.88;;;3.90;99.90;;;;;;5084403;28;20063;-65
2023/04/26 00:18:30;;;;;;;63.75;60.53;;;3.90;99.90;;;;;;5071509;28;20038;-65
2023/04/26 00:20:56;;;;;;;63.63;60.33;;;3.80;99.90;;;;;;5094730;28;20556;-65
2023/04/26 00:23:22;;;;;;;63.00;59.75;;;3.80;99.90;;;;;;5108574;28;20085;-65
2023/04/26 00:25:47;;;;;;;61.00;58.03;;;3.70;99.90;;;;;;5073509;28;20056;-65
2023/04/26 00:28:13;;;;;;;60.42;57.33;;;3.60;99.90;;;;;;5096967;28;20043;-66
2023/04/26 00:30:46;;;;;;;62.17;59.03;;;3.60;99.90;;;;;;5096559;27;20439;-65
2023/04/26 00:33:11;;;;;;;61.05;58.15;;;3.40;99.90;;;;;;5108426;28;20085;-65
2023/04/26 00:35:37;;;;;;;60.80;57.53;;;3.30;99.90;;;;;;5110334;27;20075;-66
2023/04/26 00:38:03;;;;;;;63.80;60.17;;;3.30;99.90;;;;;;5092117;27;20502;-66
2023/04/26 00:40:29;;;;;;;63.22;60.13;;;3.20;99.90;;;;;;5091737;28;20047;-66
2023/04/26 00:42:58;;;;;;;62.42;59.20;;;3.10;99.90;;;;;;5087250;28;20406;-66
2023/04/26 00:45:24;;;;;;;61.78;58.78;;;3.00;99.90;;;;;;5089808;28;20078;-65
2023/04/26 00:47:50;;;;;;;65.00;61.67;;;2.90;99.90;;;;;;5063857;28;20078;-66
2023/04/26 00:50:15;;;;;;;65.60;62.17;;;2.90;99.90;;;;;;5091805;28;20093;-65
2023/04/26 00:52:43;;;;;;;65.78;62.65;;;2.90;99.90;;;;;;5090522;28;20044;-65
2023/04/26 00:55:09;;;;;;;68.80;65.53;;;2.80;99.90;;;;;;5091646;28;20481;-66
2023/04/26 00:57:34;;;;;;;74.50;71.13;;;2.80;99.90;;;;;;5068528;28;20040;-66
2023/04/26 01:00:00;;;;;;;74.60;70.90;;;2.70;99.90;;;;;;5094194;28;20402;-66
2023/04/26 01:02:26;;;;;;;76.95;73.22;;;2.70;99.90;;;;;;5071013;28;20410;-66
2023/04/26 01:04:51;;;;;;;93.43;89.38;;;2.60;99.90;;;;;;5105723;28;20087;-65
2023/04/26 01:07:17;;;;;;;91.25;86.85;;;2.60;99.90;;;;;;5094204;28;20162;-66
2023/04/26 01:09:43;;;;;;;97.75;93.30;;;2.60;99.90;;;;;;5066838;28;20048;-65
2023/04/26 01:12:10;;;;;;;112.10;106.70;;;2.60;99.90;;;;;;5089982;28;20398;-66
2023/04/26 01:14:36;;;;;;;119.25;114.15;;;2.50;99.90;;;;;;5091167;28;20043;-65
2023/04/26 01:17:04;;;;;;;111.13;106.05;;;2.50;99.90;;;;;;5081412;28;20036;-65
2023/04/26 01:19:31;;;;;;;120.43;115.13;;;2.50;99.90;;;;;;5089050;28;20392;-65
2023/04/26 01:21:57;;;;;;;129.50;123.60;;;2.50;99.90;;;;;;5072241;28;20080;-65
2023/04/26 01:24:22;;;;;;;121.63;115.95;;;2.50;99.90;;;;;;5084043;28;20491;-65
2023/04/26 01:26:50;;;;;;;151.32;144.73;;;2.50;99.90;;;;;;5091619;27;20052;-65
2023/04/26 01:29:20;;;;;;;141.45;135.43;;;2.70;99.90;;;;;;5090002;27;20485;-65
2023/04/26 01:31:47;;;;;;;133.23;126.97;;;2.70;99.90;;;;;;5087579;28;20575;-66
2023/04/26 01:34:13;;;;;;;128.07;122.32;;;2.80;99.90;;;;;;5110880;27;20061;-65
2023/04/26 01:36:38;;;;;;;129.85;124.03;;;2.90;99.90;;;;;;5066074;28;20395;-65
2023/04/26 01:39:04;;;;;;;129.30;123.38;;;3.00;99.90;;;;;;5086078;27;20039;-65
2023/04/26 01:41:31;;;;;;;127.55;121.72;;;3.00;99.90;;;;;;5073785;28;20409;-65
2023/04/26 01:43:57;;;;;;;111.93;106.75;;;3.10;99.90;;;;;;5075383;28;20046;-65
2023/04/26 01:46:22;;;;;;;108.03;103.30;;;3.20;99.90;;;;;;5090666;28;20044;-65
2023/04/26 01:48:48;;;;;;;95.28;90.85;;;3.30;99.90;;;;;;5092386;28;20088;-66
2023/04/26 01:51:13;;;;;;;88.35;84.25;;;3.30;99.90;;;;;;5094221;27;20047;-65
2023/04/26 01:53:39;;;;;;;87.60;83.55;;;3.40;99.90;;;;;;5078247;28;20483;-65
2023/04/26 01:56:05;;;;;;;84.60;80.53;;;3.40;99.90;;;;;;5065832;28;20043;-65
2023/04/26 01:58:31;;;;;;;79.20;75.28;;;3.30;99.90;;;;;;5092046;27;20031;-66
2023/04/26 02:01:04;;;;;;;72.07;68.40;;;3.30;99.90;;;;;;5086541;28;20399;-66
2023/04/26 02:03:30;;;;;;;76.40;72.72;;;3.30;99.90;;;;;;5087801;28;20117;-65
2023/04/26 02:05:55;;;;;;;73.07;69.45;;;3.20;99.90;;;;;;5087790;28;20523;-65
2023/04/26 02:08:21;;;;;;;72.78;69.28;;;3.20;99.90;;;;;;5068249;28;20046;-66
2023/04/26 02:10:47;;;;;;;69.70;66.40;;;3.20;99.90;;;;;;5090938;28;20039;-66
2023/04/26 02:13:13;;;;;;;67.55;63.97;;;3.20;99.90;;;;;;5102859;28;20585;-66
2023/04/26 02:15:39;;;;;;;65.97;62.47;;;3.10;99.90;;;;;;5106917;28;20467;-66
2023/04/26 02:18:05;;;;;;;65.47;61.97;;;3.10;99.90;;;;;;5086924;28;20074;-65
2023/04/26 02:20:31;;;;;;;64.90;61.65;;;3.00;99.90;;;;;;5079642;27;20066;-65
2023/04/26 02:22:56;;;;;;;62.00;59.20;;;3.00;99.90;;;;;;5085901;28;20031;-66
2023/04/26 02:25:23;;;;;;;60.63;57.67;;;2.90;99.90;;;;;;5092344;28;20032;-65
2023/04/26 02:27:49;;;;;;;62.60;59.60;;;2.80;99.90;;;;;;5110491;27;20082;-65
2023/04/26 02:30:15;;;;;;;67.43;64.10;;;2.80;99.90;;;;;;5063825;27;20115;-65
2023/04/26 02:32:40;;;;;;;70.72;67.47;;;2.70;99.90;;;;;;5081035;28;20396;-65
2023/04/26 02:35:07;;;;;;;91.05;86.85;;;2.70;99.90;;;;;;5066220;28;20035;-65
2023/04/26 02:37:33;;;;;;;97.22;92.68;;;2.80;99.90;;;;;;5094786;28;20041;-65
2023/04/26 02:39:58;;;;;;;94.53;90.22;;;2.90;99.90;;;;;;5090242;28;20047;-66
2023/04/26 02:42:24;;;;;;;85.03;80.95;;;3.10;99.90;;;;;;5090051;28;20042;-66
2023/04/26 02:44:50;;;;;;;73.55;69.93;;;3.20;99.90;;;;;;5084077;28;20050;-65
2023/04/26 02:47:16;;;;;;;69.38;65.85;;;3.30;99.90;;;;;;5082559;28;20056;-65
2023/04/26 02:49:42;;;;;;;65.97;62.97;;;3.30;99.90;;;;;;5086956;28;20061;-65
2023/04/26 02:52:07;;;;;;;64.47;61.30;;;3.30;99.90;;;;;;5091044;28;20043;-65
2023/04/26 02:54:33;;;;;;;64.13;60.72;;;3.20;99.90;;;;;;5102333;28;20041;-65
2023/04/26 02:56:58;;;;;;;66.10;63.10;;;3.20;99.90;;;;;;5072573;28;20051;-65
2023/04/26 02:59:24;;;;;;;67.18;64.18;;;3.10;99.90;;;;;;5089738;28;20039;-65
2023/04/26 03:01:50;;;;;;;65.32;62.40;;;3.10;99.90;;;;;;5086966;28;20092;-65
2023/04/26 03:04:16;;;;;;;67.18;64.07;;;3.20;99.90;;;;;;5097458;28;20030;-65
2023/04/26 03:06:42;;;;;;;66.68;63.50;;;3.20;99.90;;;;;;5079535;28;20043;-66
2023/04/26 03:09:07;;;;;;;70.75;67.20;;;3.30;99.90;;;;;;5082625;28;20054;-65
2023/04/26 03:11:33;;;;;;;64.13;61.03;;;3.40;99.90;;;;;;5088019;28;20035;-65
2023/04/26 03:13:59;;;;;;;61.83;58.97;;;3.50;99.90;;;;;;5081993;28;20031;-66
2023/04/26 03:16:26;;;;;;;58.80;55.75;;;3.60;99.90;;;;;;5094229;28;20414;-66
2023/04/26 03:18:52;;;;;;;57.03;54.42;;;3.70;99.90;;;;;;5087698;28;20069;-66
2023/04/26 03:21:19;;;;;;;57.42;54.53;;;3.80;99.90;;;;;;5088777;28;20134;-66
2023/04/26 03:23:45;;;;;;;58.90;55.85;;;3.90;99.90;;;;;;5088129;28;20067;-66
2023/04/26 03:26:11;;;;;;;59.67;56.58;;;3.90;99.90;;;;;;5086593;28;20132;-66
2023/04/26 03:28:37;;;;;;;62.97;59.80;;;4.00;99.90;;;;;;5088316;28;20039;-66
2023/04/26 03:31:02;;;;;;;61.17;58.25;;;4.00;99.90;;;;;;5071934;28;20437;-65
2023/04/26 03:33:31;;;;;;;63.25;60.45;;;4.00;99.90;;;;;;5105896;28;20031;-66
2023/04/26 03:35:57;;;;;;;61.67;58.78;;;4.00;99.90;;;;;;5083520;28;20079;-66
2023/04/26 03:38:23;;;;;;;60.47;57.70;;;4.00;99.90;;;;;;5091205;28;20073;-65
2023/04/26 03:40:49;;;;;;;61.00;57.65;;;4.00;99.90;;;;;;5089357;28;20052;-66
2023/04/26 03:43:15;;;;;;;61.00;58.05;;;4.00;99.90;;;;;;5081573;28;20036;-66
2023/04/26 03:45:40;;;;;;;62.35;59.33;;;4.00;99.90;;;;;;5085856;28;20488;-66
2023/04/26 03:48:06;;;;;;;60.85;57.95;;;3.90;99.90;;;;;;5071168;28;20054;-65
2023/04/26 03:50:31;;;;;;;60.67;57.47;;;3.90;99.90;;;;;;5078030;28;20593;-66
2023/04/26 03:52:57;;;;;;;59.78;56.80;;;3.80;99.90;;;;;;5092541;28;20498;-66
2023/04/26 03:55:23;;;;;;;58.25;55.15;;;3.80;99.90;;;;;;5088218;28;20543;-66
2023/04/26 03:57:48;;;;;;;57.33;54.45;;;3.80;99.90;;;;;;5104335;28;20035;-66
2023/04/26 04:00:14;;;;;;;57.38;54.67;;;3.80;99.90;;;;;;5109141;28;20418;-66
2023/04/26 04:02:41;;;;;;;58.25;55.50;;;3.70;99.90;;;;;;5104623;28;20443;-65
2023/04/26 04:05:07;;;;;;;57.38;54.47;;;3.70;99.90;;;;;;5073529;28;20055;-66
2023/04/26 04:07:33;;;;;;;58.28;55.40;;;3.60;99.90;;;;;;5076414;27;20042;-66
2023/04/26 04:09:59;;;;;;;59.10;56.20;;;3.60;99.90;;;;;;5084410;28;20040;-67
2023/04/26 04:12:25;;;;;;;61.33;58.35;;;3.60;99.90;;;;;;5113284;27;20039;-66
2023/04/26 04:14:51;;;;;;;62.25;59.08;;;3.60;99.90;;;;;;5110931;28;20044;-66
2023/04/26 04:17:17;;;;;;;57.95;54.88;;;3.60;99.90;;;;;;5103203;28;20040;-66
2023/04/26 04:19:44;;;;;;;58.15;55.35;;;3.60;99.90;;;;;;5084770;28;20122;-66
2023/04/26 04:22:10;;;;;;;58.15;55.35;;;3.70;99.90;;;;;;5110963;28;20065;-65
2023/04/26 04:24:36;;;;;;;61.25;58.30;;;3.80;99.90;;;;;;5076991;28;20061;-66
2023/04/26 04:27:02;;;;;;;59.88;57.03;;;3.80;99.90;;;;;;5085529;28;20105;-66
2023/04/26 04:29:28;;;;;;;60.08;56.97;;;3.80;99.90;;;;;;5090050;28;20077;-66
2023/04/26 04:31:54;;;;;;;59.03;56.28;;;3.80;99.90;;;;;;5076597;28;20383;-65
2023/04/26 04:34:20;;;;;;;58.83;56.03;;;3.80;99.90;;;;;;5090774;28;20046;-66
2023/04/26 04:36:46;;;;;;;60.70;57.47;;;3.80;99.90;;;;;;5091885;27;20406;-65
2023/04/26 04:39:15;;;;;;;58.83;55.92;;;3.70;99.90;;;;;;5090549;28;20082;-66
2023/04/26 04:41:47;;;;;;;60.20;57.40;;;3.70;99.90;;;;;;5091131;28;20433;-65
2023/04/26 04:44:17;;;;;;;59.20;56.22;;;3.60;99.90;;;;;;5096756;28;20495;-66
2023/04/26 04:46:43;;;;;;;59.67;56.55;;;3.60;99.90;;;;;;5091375;28;20130;-65
2023/04/26 04:49:11;;;;;;;59.38;56.38;;;3.50;99.90;;;;;;5085892;28;20051;-65
2023/04/26 04:51:37;;;;;;;58.25;55.35;;;3.50;99.90;;;;;;5106676;28;20039;-66
2023/04/26 04:54:13;;;;;;;59.08;55.97;;;3.40;99.90;;;;;;5094589;28;20043;-66
2023/04/26 04:56:39;;;;;;;59.33;56.53;;;3.30;99.90;;;;;;5088208;28;20467;-66
2023/04/26 04:59:05;;;;;;;59.88;56.97;;;3.30;99.90;;;;;;5087501;28;20071;-66
2023/04/26 05:01:32;;;;;;;59.83;56.95;;;3.30;99.90;;;;;;5088945;28;20123;-66
2023/04/26 05:03:58;;;;;;;60.10;57.40;;;3.40;99.90;;;;;;5113523;27;20051;-66
2023/04/26 05:06:24;;;;;;;60.38;57.28;;;3.50;99.90;;;;;;5079204;28;20039;-66
2023/04/26 05:08:50;;;;;;;57.85;55.08;;;3.60;99.90;;;;;;5074535;28;20407;-66
2023/04/26 05:11:15;;;;;;;59.58;56.67;;;3.60;99.90;;;;;;5082030;28;21029;-65
2023/04/26 05:13:41;;;;;;;57.60;54.78;;;3.70;99.90;;;;;;5074495;28;20043;-66
2023/04/26 05:16:06;;;;;;;59.63;56.70;;;3.80;99.90;;;;;;5090416;28;20044;-66
2023/04/26 05:18:32;;;;;;;59.72;56.83;;;4.00;99.90;;;;;;5070199;28;20028;-65
2023/04/26 05:20:58;;;;;;;59.90;57.00;;;4.30;99.90;;;;;;5092549;28;20039;-65
2023/04/26 05:23:23;;;;;;;59.72;56.72;;;4.70;99.90;;;;;;5073694;28;20047;-66
2023/04/26 05:25:49;;;;;;;55.05;52.40;;;5.20;99.90;;;;;;5109450;28;20051;-66
2023/04/26 05:28:15;;;;;;;53.97;51.35;;;5.60;99.90;;;;;;5090429;28;20052;-66
2023/04/26 05:30:41;;;;;;;57.55;54.45;;;6.00;99.90;;;;;;5090819;28;20131;-66
2023/04/26 05:33:07;;;;;;;57.08;54.08;;;6.30;99.90;;;;;;5070050;28;20048;-65
2023/04/26 05:35:33;;;;;;;55.70;53.00;;;6.80;99.90;;;;;;5090871;28;20038;-66
2023/04/26 05:37:59;;;;;;;61.50;58.42;;;7.10;99.90;;;;;;5090545;28;20040;-66
2023/04/26 05:40:25;;;;;;;58.47;55.67;;;6.90;99.90;;;;;;5088360;28;20371;-66
2023/04/26 05:42:51;;;;;;;56.08;53.28;;;6.50;99.90;;;;;;5108640;28;20125;-66
2023/04/26 05:45:17;;;;;;;57.72;54.63;;;6.20;99.90;;;;;;5087311;28;22171;-66
2023/04/26 05:47:42;;;;;;;54.40;51.63;;;5.90;99.90;;;;;;5108425;28;20064;-66
2023/04/26 05:50:08;;;;;;;53.67;51.08;;;5.70;99.90;;;;;;5106753;28;20125;-66
2023/04/26 05:52:34;;;;;;;54.13;51.53;;;5.70;99.90;;;;;;5082063;28;20051;-66
2023/04/26 05:55:02;;;;;;;52.85;50.35;;;5.60;99.90;;;;;;5088397;28;20070;-66
2023/04/26 05:57:28;;;;;;;50.70;48.30;;;5.60;99.90;;;;;;5087020;28;20047;-66
2023/04/26 05:59:54;;;;;;;52.20;49.45;;;5.60;99.90;;;;;;5089944;28;20040;-66
2023/04/26 06:02:20;;;;;;;50.58;47.95;;;5.60;99.90;;;;;;5090903;28;20399;-66
2023/04/26 06:04:46;;;;;;;51.95;48.88;;;5.70;99.90;;;;;;5091270;28;20069;-66
2023/04/26 06:07:11;;;;;;;50.13;47.72;;;5.60;99.90;;;;;;5073139;28;20088;-66
2023/04/26 06:09:37;;;;;;;54.15;51.55;;;5.70;99.90;;;;;;5109499;28;20641;-66
2023/04/26 06:12:03;;;;;;;54.78;52.00;;;5.70;99.90;;;;;;5073557;28;20138;-66
2023/04/26 06:14:28;;;;;;;53.00;50.03;;;5.70;99.90;;;;;;5085263;28;20035;-66
2023/04/26 06:16:55;;;;;;;51.70;49.13;;;5.80;99.90;;;;;;5105612;27;20054;-66
2023/04/26 06:19:21;;;;;;;49.83;47.15;;;5.90;99.90;;;;;;5070736;28;20043;-66
2023/04/26 06:21:47;;;;;;;49.47;46.95;;;6.00;99.90;;;;;;5089447;28;20545;-66
2023/04/26 06:24:13;;;;;;;52.70;50.10;;;6.20;99.90;;;;;;5088816;28;20040;-66
2023/04/26 06:26:39;;;;;;;56.75;53.65;;;6.40;99.90;;;;;;5088308;28;20059;-66
2023/04/26 06:29:04;;;;;;;53.67;51.15;;;6.50;99.90;;;;;;5079424;28;20044;-66
2023/04/26 06:31:30;;;;;;;56.25;53.63;;;6.60;99.90;;;;;;5088486;28;20052;-66
2023/04/26 06:33:56;;;;;;;52.03;49.33;;;6.70;99.90;;;;;;5075771;28;20055;-66
2023/04/26 06:36:22;;;;;;;49.05;46.47;;;6.70;99.90;;;;;;5083452;28;20383;-66
2023/04/26 06:38:48;;;;;;;48.70;46.20;;;6.90;99.90;;;;;;5089481;28;20117;-66
2023/04/26 06:41:14;;;;;;;55.90;52.58;;;7.40;99.90;;;;;;5090725;28;20422;-66
2023/04/26 06:43:39;;;;;;;52.20;49.38;;;8.00;99.90;;;;;;5089611;28;20039;-66
2023/04/26 06:46:05;;;;;;;51.58;48.88;;;8.30;99.90;;;;;;5089622;28;20078;-66
2023/04/26 06:48:31;;;;;;;51.80;48.83;;;8.40;99.90;;;;;;5107891;28;20032;-66
2023/04/26 06:50:56;;;;;;;56.58;53.25;;;9.20;99.90;;;;;;5072696;28;20043;-66
2023/04/26 06:53:22;;;;;;;60.20;57.03;;;10.00;99.90;;;;;;5073803;28;20116;-66
2023/04/26 06:55:47;;;;;;;68.90;65.50;;;10.80;99.90;;;;;;5105930;28;20047;-66
2023/04/26 06:58:13;;;;;;;67.18;64.00;;;11.40;99.90;;;;;;5083532;28;20047;-66
2023/04/26 07:00:39;;;;;;;86.07;82.03;;;11.70;99.90;;;;;;5102758;28;20038;-66
2023/04/26 07:03:04;;;;;;;70.80;67.60;;;11.60;99.90;;;;;;5080152;28;20101;-66
2023/04/26 07:05:30;;;;;;;75.40;71.90;;;10.70;99.90;;;;;;5101667;28;20039;-66
2023/04/26 07:07:56;;;;;;;59.33;56.42;;;9.90;99.90;;;;;;5083017;28;20066;-66
2023/04/26 07:10:21;;;;;;;65.18;62.20;;;9.40;99.90;;;;;;5106339;28;20035;-66
2023/04/26 07:12:47;;;;;;;69.40;65.95;;;9.10;99.90;;;;;;5087354;28;20070;-66
2023/04/26 07:15:13;;;;;;;49.17;46.40;;;8.80;99.90;;;;;;5085729;28;20058;-66
2023/04/26 07:17:38;;;;;;;65.55;62.60;;;8.60;99.90;;;;;;5102921;28;20040;-66
2023/04/26 07:20:04;;;;;;;64.35;61.15;;;8.50;99.90;;;;;;5072833;28;20556;-66
2023/04/26 07:22:30;;;;;;;58.20;55.17;;;8.40;99.90;;;;;;5085239;28;20049;-66
2023/04/26 07:24:56;;;;;;;65.03;61.72;;;8.40;99.90;;;;;;5103125;28;20035;-66
2023/04/26 07:27:22;;;;;;;46.75;44.05;;;8.30;99.90;;;;;;5068268;28;20052;-66
2023/04/26 07:29:47;;;;;;;51.25;48.50;;;8.40;99.90;;;;;;5087577;28;20379;-66
2023/04/26 07:32:13;;;;;;;59.15;56.42;;;8.60;99.90;;;;;;5082220;28;20039;-66
2023/04/26 07:34:39;;;;;;;51.58;48.75;;;8.70;99.90;;;;;;5086285;28;20414;-66
2023/04/26 07:37:05;;;;;;;52.47;49.83;;;8.80;99.90;;;;;;5082114;28;20055;-66
2023/04/26 07:39:31;;;;;;;49.67;47.00;;;8.90;99.90;;;;;;5086178;28;20433;-66
2023/04/26 07:41:57;;;;;;;48.45;46.03;;;9.00;99.90;;;;;;5088675;28;20050;-66
2023/04/26 07:44:22;;;;;;;46.17;43.90;;;9.00;99.90;;;;;;5097446;28;20043;-66
2023/04/26 07:46:48;;;;;;;53.72;51.22;;;9.00;99.90;;;;;;5079040;28;20035;-66
2023/04/26 07:49:14;;;;;;;56.72;54.03;;;9.20;99.90;;;;;;5073828;28;20078;-66
2023/04/26 07:51:43;;;;;;;65.50;62.05;;;9.20;99.90;;;;;;5081168;28;20103;-66
2023/04/26 07:54:09;;;;;;;51.90;49.08;;;9.30;99.90;;;;;;5077794;28;20047;-66
2023/04/26 07:56:35;;;;;;;53.63;50.63;;;9.40;99.90;;;;;;5087856;28;20051;-66
2023/04/26 07:59:01;;;;;;;38.45;36.28;;;9.40;99.90;;;;;;5087903;28;20491;-66
2023/04/26 08:01:27;;;;;;;57.65;54.63;;;9.40;99.90;;;;;;5070202;28;20051;-66
2023/04/26 08:03:53;;;;;;;63.35;60.28;;;9.50;99.90;;;;;;5098426;28;22372;-66
2023/04/26 08:06:19;;;;;;;40.80;38.55;;;9.60;99.90;;;;;;5085438;28;20043;-66
2023/04/26 08:08:48;;;;;;;42.35;39.90;;;9.70;99.90;;;;;;5103244;28;20809;-66
2023/04/26 08:11:13;;;;;;;61.67;58.70;;;9.60;99.90;;;;;;5084540;28;20047;-66
2023/04/26 08:13:39;;;;;;;48.17;45.65;;;9.50;99.90;;;;;;5080335;28;20364;-66
2023/04/26 08:16:05;;;;;;;52.53;49.90;;;9.50;99.90;;;;;;5087579;28;20040;-66
2023/04/26 08:18:31;;;;;;;33.15;31.23;;;9.40;99.90;;;;;;5103251;28;20486;-66
2023/04/26 08:20:57;;;;;;;50.40;47.70;;;9.50;99.90;;;;;;5103462;28;20122;-66
2023/04/26 08:23:22;;;;;;;55.78;52.95;;;9.60;99.90;;;;;;5066009;28;20054;-66
2023/04/26 08:25:51;;;;;;;53.17;50.45;;;9.60;99.90;;;;;;5105983;28;20059;-66
2023/04/26 08:28:16;;;;;;;35.35;33.35;;;9.60;99.90;;;;;;5086895;28;20043;-66
2023/04/26 08:30:42;;;;;;;55.50;52.60;;;9.60;99.90;;;;;;5100568;28;20044;-66
2023/04/26 08:33:11;;;;;;;32.95;30.85;;;9.50;99.90;;;;;;5085964;28;20535;-66
2023/04/26 08:35:36;;;;;;;42.20;39.83;;;9.50;99.90;;;;;;5080843;28;20036;-66
2023/04/26 08:38:02;;;;;;;42.47;40.08;;;9.30;99.90;;;;;;5083990;28;20035;-66
2023/04/26 08:40:28;;;;;;;39.95;37.45;;;9.20;99.90;;;;;;5105821;28;20040;-66
2023/04/26 08:42:53;;;;;;;52.55;49.92;;;8.90;99.90;;;;;;5084456;28;20043;-66
2023/04/26 08:45:20;;;;;;;53.55;50.65;;;8.70;99.90;;;;;;5101708;28;21533;-66
2023/04/26 08:47:52;;;;;;;57.85;54.72;;;8.50;99.90;;;;;;5085027;28;20040;-65
2023/04/26 08:50:22;;;;;;;51.67;48.33;;;8.40;99.90;;;;;;5088234;28;20047;-66
2023/04/26 08:52:50;;;;;;;52.28;49.78;;;8.30;99.90;;;;;;5069558;28;20050;-66
2023/04/26 08:55:18;;;;;;;48.13;45.63;;;8.30;99.90;;;;;;5081207;28;20112;-66
2023/04/26 08:57:48;;;;;;;49.40;46.70;;;8.30;99.90;;;;;;5091404;28;20040;-66
2023/04/26 09:00:16;;;;;;;41.45;38.80;;;8.40;99.90;;;;;;5067541;28;20502;-66
2023/04/26 09:02:48;;;;;;;45.78;43.28;;;8.60;99.90;;;;;;5085030;28;20131;-66
2023/04/26 09:05:14;;;;;;;48.95;46.42;;;8.70;99.90;;;;;;5101940;28;20044;-66
2023/04/26 09:07:47;;;;;;;53.20;50.50;;;8.80;99.90;;;;;;5105753;28;20547;-66
2023/04/26 09:10:20;;;;;;;42.38;39.92;;;9.00;99.90;;;;;;5056210;28;20122;-66
2023/04/26 09:12:53;;;;;;;34.55;32.13;;;9.20;99.90;;;;;;5105636;28;20036;-66
2023/04/26 09:15:21;;;;;;;48.03;45.50;;;9.30;99.90;;;;;;5064899;28;20047;-66
2023/04/26 09:17:48;;;;;;;35.78;33.50;;;9.20;99.90;;;;;;5107416;28;20114;-66
2023/04/26 09:20:20;;;;;;;45.78;43.15;;;9.20;99.90;;;;;;5089928;28;20126;-66
2023/04/26 09:22:47;;;;;;;44.17;41.70;;;9.30;99.90;;;;;;5074204;28;20043;-66
2023/04/26 09:25:14;;;;;;;34.45;32.03;;;9.50;99.90;;;;;;5089570;28;20044;-66
2023/04/26 09:27:47;;;;;;;35.30;33.00;;;9.50;99.90;;;;;;5090104;28;20054;-66
2023/04/26 09:30:19;;;;;;;31.80;30.00;;;9.60;99.90;;;;;;5066820;28;20043;-66
2023/04/26 09:32:48;;;;;;;32.75;30.70;;;9.70;99.90;;;;;;5089865;28;20423;-66
2023/04/26 09:35:33;;;;;;;41.58;39.40;;;9.70;99.90;;;;;;5089829;28;20096;-66
2023/04/26 09:38:06;;;;;;;37.08;34.83;;;9.80;99.90;;;;;;5072204;28;20527;-66
2023/04/26 09:40:41;;;;;;;30.13;28.42;;;9.90;99.90;;;;;;5089011;28;20031;-66
2023/04/26 09:43:07;;;;;;;45.22;42.70;;;9.80;99.90;;;;;;5089731;28;20131;-66
2023/04/26 09:45:45;;;;;;;33.78;31.77;;;9.80;99.90;;;;;;5090989;28;20151;-66
2023/04/26 09:48:21;;;;;;;33.85;31.85;;;9.90;99.90;;;;;;5070060;28;20060;-66
2023/04/26 09:50:48;;;;;;;37.85;35.67;;;9.90;99.90;;;;;;5085315;28;20044;-66
2023/04/26 09:53:37;;;;;;;51.17;48.55;;;10.00;99.90;;;;;;5090059;28;20065;-66
2023/04/26 09:56:13;;;;;;;32.03;30.08;;;10.20;99.90;;;;;;5086068;28;20532;-66
2023/04/26 09:59:01;;;;;;;45.97;43.42;;;10.50;99.90;;;;;;5081246;28;20498;-66
2023/04/26 10:01:28;;;;;;;28.70;26.70;;;10.60;99.90;;;;;;5105596;28;20047;-66
2023/04/26 10:03:56;;;;;;;29.27;27.33;;;10.70;99.90;;;;;;5072704;28;20505;-66
2023/04/26 10:06:22;;;;;;;28.00;26.33;;;10.80;99.90;;;;;;5089390;28;20046;-66
2023/04/26 10:08:47;;;;;;;33.30;31.40;;;10.60;99.90;;;;;;5084112;28;20040;-66
2023/04/26 10:11:13;;;;;;;28.80;26.80;;;10.60;99.90;;;;;;5105664;27;20545;-66
2023/04/26 10:13:40;;;;;;;33.65;31.67;;;10.50;99.90;;;;;;5072066;28;20088;-66
2023/04/26 10:16:08;;;;;;;32.97;31.00;;;10.40;99.90;;;;;;5100975;28;20050;-66
2023/04/26 10:18:34;;;;;;;35.50;33.53;;;10.20;99.90;;;;;;5067110;28;20123;-66
2023/04/26 10:21:24;;;;;;;31.15;29.20;;;10.00;99.90;;;;;;5077885;27;20248;-66
2023/04/26 10:23:50;;;;;;;32.67;30.75;;;9.80;99.90;;;;;;5090687;27;20093;-66
2023/04/26 10:26:52;;;;;;;34.97;33.03;;;9.70;99.90;;;;;;5080835;28;20533;-66
2023/04/26 10:29:20;;;;;;;37.00;34.95;;;9.70;99.90;;;;;;5078131;28;20563;-66
2023/04/26 10:32:03;;;;;;;32.00;29.60;;;9.90;99.90;;;;;;5083904;28;20051;-66
2023/04/26 10:34:30;;;;;;;35.40;33.28;;;10.10;99.90;;;;;;5102314;27;20043;-66
2023/04/26 10:37:17;;;;;;;33.00;31.27;;;10.30;99.90;;;;;;5081019;28;20333;-66
2023/04/26 10:39:44;;;;;;;29.08;27.40;;;10.80;99.90;;;;;;5092570;27;20035;-66
2023/04/26 10:42:23;;;;;;;28.17;26.27;;;11.00;99.90;;;;;;5100245;27;20566;-66
2023/04/26 10:44:49;;;;;;;29.58;27.88;;;10.90;99.90;;;;;;5079263;28;20040;-66
2023/04/26 10:47:27;;;;;;;30.80;28.80;;;10.60;99.90;;;;;;5090328;28;20044;-66
2023/04/26 10:50:04;;;;;;;36.53;34.28;;;10.10;99.90;;;;;;5084586;28;20042;-66
2023/04/26 10:52:30;;;;;;;48.13;45.20;;;9.80;99.90;;;;;;5080972;28;20063;-66
2023/04/26 10:54:57;;;;;;;40.22;38.08;;;9.40;99.90;;;;;;5079695;28;20075;-66
2023/04/26 10:57:44;;;;;;;54.17;51.20;;;9.20;99.90;;;;;;5064234;28;20040;-65
2023/04/26 11:00:13;;;;;;;51.10;48.58;;;9.10;99.90;;;;;;5094418;28;20075;-66
2023/04/26 11:02:51;;;;;;;47.38;44.83;;;8.90;99.90;;;;;;5074198;28;20051;-66
2023/04/26 11:05:36;;;;;;;57.92;55.03;;;8.80;99.90;;;;;;5090064;28;20513;-66
2023/04/26 11:08:06;;;;;;;40.03;37.70;;;8.80;99.90;;;;;;5082231;28;20566;-66
2023/04/26 11:10:32;;;;;;;55.33;52.53;;;8.90;99.90;;;;;;5078012;28;20055;-66
2023/04/26 11:13:02;;;;;;;58.25;55.03;;;8.90;99.90;;;;;;5094770;28;20040;-65
2023/04/26 11:15:30;;;;;;;44.42;41.85;;;8.90;99.90;;;;;;5080591;28;20458;-66
2023/04/26 11:17:55;;;;;;;35.95;34.03;;;9.00;99.90;;;;;;5081609;28;20068;-66
2023/04/26 11:20:21;;;;;;;39.55;37.35;;;9.10;99.90;;;;;;5076379;28;20040;-66
2023/04/26 11:22:47;;;;;;;37.72;35.42;;;9.20;99.90;;;;;;5081978;28;20038;-66
2023/04/26 11:25:13;;;;;;;34.45;32.55;;;9.30;99.90;;;;;;5079973;28;20571;-66
2023/04/26 11:27:42;;;;;;;37.05;35.03;;;9.40;99.90;;;;;;5086296;28;20086;-66
2023/04/26 11:30:08;;;;;;;30.30;27.95;;;9.40;99.90;;;;;;5085333;28;20036;-66
2023/04/26 11:32:34;;;;;;;36.70;34.67;;;9.40;99.90;;;;;;5099797;28;20042;-66
2023/04/26 11:35:00;;;;;;;37.38;35.03;;;9.40;99.90;;;;;;5106356;28;20032;-66
2023/04/26 11:37:26;;;;;;;32.47;30.70;;;9.50;99.90;;;;;;5080002;28;20055;-66
2023/04/26 11:39:51;;;;;;;35.13;33.22;;;9.60;99.70;;;;;;5082022;28;20039;-66
2023/04/26 11:42:23;;;;;;;35.67;33.70;;;9.60;99.90;;;;;;5079977;28;20490;-66
2023/04/26 11:44:50;;;;;;;32.90;31.10;;;9.80;99.90;;;;;;5101428;28;20429;-66
2023/04/26 11:47:17;;;;;;;23.38;21.80;;;10.10;99.90;;;;;;5086041;28;20035;-67
2023/04/26 11:49:43;;;;;;;25.65;24.02;;;10.30;99.90;;;;;;5088338;28;20039;-66
2023/04/26 11:52:09;;;;;;;23.23;21.92;;;10.50;99.90;;;;;;5083861;28;20123;-66
2023/04/26 11:54:36;;;;;;;22.30;20.75;;;10.70;99.90;;;;;;5080561;28;20469;-66
2023/04/26 11:57:16;;;;;;;30.20;28.60;;;10.90;99.90;;;;;;5085658;28;20392;-66
2023/04/26 11:59:42;;;;;;;28.92;27.02;;;10.90;99.60;;;;;;5064801;28;20577;-66
2023/04/26 12:02:08;;;;;;;21.38;19.90;;;10.90;99.30;;;;;;5102023;28;20043;-66
2023/04/26 12:04:36;;;;;;;23.45;22.10;;;10.80;98.40;;;;;;5078582;28;20043;-66
2023/04/26 12:07:03;;;;;;;20.42;19.02;;;10.70;98.80;;;;;;5083126;28;20048;-66
2023/04/26 12:09:30;;;;;;;20.63;19.23;;;10.50;96.80;;;;;;5068883;28;20040;-66
2023/04/26 12:12:06;;;;;;;24.52;23.02;;;10.30;95.90;;;;;;5078386;28;20052;-66
2023/04/26 12:14:41;;;;;;;24.25;22.85;;;10.10;97.40;;;;;;5080709;28;20054;-66
2023/04/26 12:17:07;;;;;;;24.08;22.25;;;9.90;97.00;;;;;;5081435;28;20794;-66
2023/04/26 12:19:37;;;;;;;22.98;21.30;;;9.60;98.00;;;;;;5082820;28;20080;-66
2023/04/26 12:22:03;;;;;;;22.23;20.83;;;9.40;99.20;;;;;;5091425;28;20039;-66
2023/04/26 12:24:35;;;;;;;21.42;20.08;;;9.40;99.70;;;;;;5106495;28;20031;-66
2023/04/26 12:27:03;;;;;;;22.85;21.13;;;9.40;99.30;;;;;;5076123;28;20139;-66
2023/04/26 12:29:30;;;;;;;23.45;22.05;;;9.30;99.70;;;;;;5081320;28;20036;-65
2023/04/26 12:31:56;;;;;;;24.23;22.25;;;9.30;99.90;;;;;;5075434;28;20043;-65
2023/04/26 12:34:23;;;;;;;26.38;24.88;;;9.30;99.90;;;;;;5084501;28;20555;-65
2023/04/26 12:36:48;;;;;;;24.27;22.65;;;9.10;99.90;;;;;;5106449;28;20423;-65